createdAt,value
2016-09-15T00:00:46.330Z,32.34
2016-09-15T00:01:46.353Z,32.73
2016-09-15T00:02:46.383Z,32.34
2016-09-15T00:03:46.408Z,32.24
2016-09-15T00:04:46.437Z,32.54
2016-09-15T00:05:46.459Z,32.34
2016-09-15T00:06:46.490Z,33.02
2016-09-15T00:07:46.520Z,32.73
2016-09-15T00:08:46.541Z,32.64
2016-09-15T00:09:46.567Z,32.82
2016-09-15T00:10:46.596Z,32.92
2016-09-15T00:11:46.623Z,32.82
2016-09-15T00:12:46.650Z,32.82
2016-09-15T00:13:46.677Z,32.92
2016-09-15T00:14:46.704Z,32.82
2016-09-15T00:15:46.732Z,33.02
2016-09-15T00:16:46.763Z,32.82
2016-09-15T00:17:46.793Z,33.12
2016-09-15T00:18:46.809Z,33.31
2016-09-15T00:19:46.838Z,33.12
2016-09-15T00:20:46.869Z,32.82
2016-09-15T00:21:46.891Z,33.1
2016-09-15T00:22:46.919Z,33.31
2016-09-15T00:23:46.943Z,33.22
2016-09-15T00:24:46.969Z,33.12
2016-09-15T00:25:46.996Z,33.1
2016-09-15T00:26:47.024Z,33
2016-09-15T00:27:47.049Z,33.2
2016-09-15T00:28:47.077Z,33.1
2016-09-15T00:29:47.104Z,33.1
2016-09-15T00:30:47.133Z,33.2
2016-09-15T00:31:47.156Z,33.1
2016-09-15T00:32:47.183Z,32.91
2016-09-15T00:33:47.211Z,33
2016-09-15T00:34:47.238Z,33.48
2016-09-15T00:35:47.264Z,33.1
2016-09-15T00:36:47.292Z,33.1
2016-09-15T00:37:47.318Z,33.48
2016-09-15T00:38:47.344Z,33.1
2016-09-15T00:39:47.374Z,33.1
2016-09-15T00:40:47.398Z,33.29
2016-09-15T00:41:47.428Z,33.48
2016-09-15T00:42:47.451Z,33.48
2016-09-15T00:43:47.477Z,33.48
2016-09-15T00:44:47.507Z,33.48
2016-09-15T00:45:47.531Z,33.58
2016-09-15T00:46:47.559Z,33.58
2016-09-15T00:47:47.583Z,33.48
2016-09-15T00:48:47.612Z,33.68
2016-09-15T00:49:47.634Z,33.68
2016-09-15T00:50:47.663Z,33.68
2016-09-15T00:51:48.000Z,33.87
2016-09-15T00:52:47.721Z,33.87
2016-09-15T00:53:47.742Z,33.58
2016-09-15T00:54:47.768Z,33.78
2016-09-15T00:55:47.797Z,33.78
2016-09-15T00:56:47.829Z,34.06
2016-09-15T00:57:47.849Z,33.87
2016-09-15T00:58:47.889Z,33.58
2016-09-15T00:59:47.902Z,33.86
2016-09-15T01:00:47.934Z,33.78
2016-09-15T01:01:47.958Z,33.57
2016-09-15T01:02:47.981Z,34.05
2016-09-15T01:03:48.008Z,34.24
2016-09-15T01:04:48.031Z,34.05
2016-09-15T01:05:48.059Z,33.95
2016-09-15T01:06:48.086Z,33.86
2016-09-15T01:07:48.115Z,34.05
2016-09-15T01:08:48.137Z,34.63
2016-09-15T01:09:48.168Z,34.44
2016-09-15T01:10:48.190Z,34.63
2016-09-15T01:11:48.217Z,34.53
2016-09-15T01:12:48.245Z,34.34
2016-09-15T01:13:48.271Z,34.53
2016-09-15T01:14:48.297Z,34.26
2016-09-15T01:15:48.322Z,34.34
2016-09-15T01:16:48.351Z,34.05
2016-09-15T01:17:48.377Z,33.95
2016-09-15T01:18:48.406Z,34.44
2016-09-15T01:19:48.429Z,34.44
2016-09-15T01:20:48.454Z,34.14
2016-09-15T01:21:48.482Z,34.14
2016-09-15T01:22:48.505Z,34.14
2016-09-15T01:23:48.533Z,34.24
2016-09-15T01:24:48.568Z,34.24
2016-09-15T01:25:48.585Z,34.34
2016-09-15T01:26:48.614Z,34.34
2016-09-15T01:27:48.639Z,34.44
2016-09-15T01:28:48.668Z,34.34
2016-09-15T01:29:48.692Z,34.24
2016-09-15T01:30:48.722Z,34.14
2016-09-15T01:31:48.745Z,34.14
2016-09-15T01:32:48.769Z,34.53
2016-09-15T01:33:48.797Z,34.53
2016-09-15T01:34:48.822Z,34.63
2016-09-15T01:35:48.855Z,34.53
2016-09-15T01:36:49.186Z,34.82
2016-09-15T01:37:48.900Z,34.92
2016-09-15T01:38:48.939Z,34.44
2016-09-15T01:39:48.953Z,34.63
2016-09-15T01:40:48.979Z,35
2016-09-15T01:41:49.007Z,34.53
2016-09-15T01:42:49.032Z,34.63
2016-09-15T01:43:49.057Z,34.72
2016-09-15T01:44:49.082Z,34.82
2016-09-15T01:45:49.114Z,35.02
2016-09-15T01:46:49.136Z,35.11
2016-09-15T01:47:49.160Z,35
2016-09-15T01:48:49.189Z,35
2016-09-15T01:49:49.214Z,34.9
2016-09-15T01:50:49.240Z,34.9
2016-09-15T01:51:49.264Z,35.28
2016-09-15T01:52:49.291Z,35.1
2016-09-15T01:53:49.317Z,35.38
2016-09-15T01:54:49.344Z,35.28
2016-09-15T01:55:49.369Z,35.38
2016-09-15T01:56:49.396Z,35.19
2016-09-15T01:57:49.737Z,35.48
2016-09-15T01:58:49.445Z,35.48
2016-09-15T01:59:49.474Z,35.19
2016-09-15T02:00:49.508Z,35.38
2016-09-15T02:01:49.524Z,35.38
2016-09-15T02:02:49.553Z,35.28
2016-09-15T02:03:49.591Z,35.28
2016-09-15T02:04:49.601Z,35.38
2016-09-15T02:05:49.628Z,35.48
2016-09-15T02:06:49.655Z,35.58
2016-09-15T02:07:49.680Z,35.38
2016-09-15T02:08:49.707Z,35.28
2016-09-15T02:09:49.732Z,35.77
2016-09-15T02:10:49.756Z,35.67
2016-09-15T02:11:49.783Z,35.96
2016-09-15T02:12:49.811Z,35.1
2016-09-15T02:13:49.835Z,35.67
2016-09-15T02:14:49.863Z,35.67
2016-09-15T02:15:49.885Z,35.58
2016-09-15T02:16:49.926Z,35.58
2016-09-15T02:17:49.937Z,35.77
2016-09-15T02:18:49.968Z,35.58
2016-09-15T02:19:49.988Z,35.58
2016-09-15T02:20:50.015Z,35.67
2016-09-15T02:21:50.042Z,35.67
2016-09-15T02:22:50.067Z,35.65
2016-09-15T02:23:50.091Z,35.65
2016-09-15T02:24:50.119Z,35.67
2016-09-15T02:25:50.142Z,35.48
2016-09-15T02:26:50.175Z,35.65
2016-09-15T02:27:50.197Z,35.77
2016-09-15T02:28:50.230Z,36.23
2016-09-15T02:29:50.248Z,36.15
2016-09-15T02:30:50.278Z,36.13
2016-09-15T02:31:50.297Z,36.06
2016-09-15T02:32:50.331Z,36.23
2016-09-15T02:33:50.350Z,36.13
2016-09-15T02:34:50.375Z,36.23
2016-09-15T02:35:50.399Z,36.23
2016-09-15T02:36:50.429Z,36.43
2016-09-15T02:37:50.458Z,36.43
2016-09-15T02:38:50.476Z,36.71
2016-09-15T02:39:50.503Z,36.52
2016-09-15T02:40:50.529Z,36.81
2016-09-15T02:41:50.553Z,36.61
2016-09-15T02:42:50.578Z,36.71
2016-09-15T02:43:50.604Z,36.61
2016-09-15T02:44:50.630Z,36.61
2016-09-15T02:45:50.658Z,36.61
2016-09-15T02:46:50.680Z,36.81
2016-09-15T02:47:50.708Z,36.71
2016-09-15T02:48:50.731Z,36.91
2016-09-15T02:49:50.760Z,36.71
2016-09-15T02:50:50.782Z,36.91
2016-09-15T02:51:50.808Z,37.01
2016-09-15T02:52:50.833Z,36.81
2016-09-15T02:53:50.859Z,36.91
2016-09-15T02:54:50.882Z,36.71
2016-09-15T02:55:50.912Z,37.01
2016-09-15T02:56:50.947Z,36.61
2016-09-15T02:57:50.962Z,36.52
2016-09-15T02:58:50.987Z,36.71
2016-09-15T02:59:51.024Z,36.61
2016-09-15T03:00:51.041Z,36.61
2016-09-15T03:01:51.065Z,36.52
2016-09-15T03:02:51.089Z,36.61
2016-09-15T03:03:51.116Z,37.19
2016-09-15T03:04:51.142Z,37.29
2016-09-15T03:05:51.165Z,37.19
2016-09-15T03:06:51.192Z,37.1
2016-09-15T03:07:51.217Z,37.1
2016-09-15T03:08:51.246Z,37.19
2016-09-15T03:09:51.274Z,37.29
2016-09-15T03:10:51.293Z,37.29
2016-09-15T03:11:51.316Z,37.1
2016-09-15T03:12:51.348Z,37.58
2016-09-15T03:13:51.371Z,37.19
2016-09-15T03:14:51.396Z,37.27
2016-09-15T03:15:51.420Z,37.29
2016-09-15T03:16:51.446Z,37.18
2016-09-15T03:17:51.471Z,37.29
2016-09-15T03:18:51.497Z,37.29
2016-09-15T03:19:51.521Z,37.46
2016-09-15T03:20:51.550Z,36.99
2016-09-15T03:21:51.572Z,37.56
2016-09-15T03:22:51.604Z,37.58
2016-09-15T03:23:51.623Z,37.56
2016-09-15T03:24:51.653Z,37.46
2016-09-15T03:25:51.674Z,37.85
2016-09-15T03:26:51.705Z,38.04
2016-09-15T03:27:51.724Z,37.56
2016-09-15T03:28:52.063Z,37.95
2016-09-15T03:29:51.780Z,37.95
2016-09-15T03:30:51.806Z,37.95
2016-09-15T03:31:51.830Z,37.85
2016-09-15T03:32:51.850Z,37.76
2016-09-15T03:33:51.876Z,37.66
2016-09-15T03:34:51.908Z,37.66
2016-09-15T03:35:51.931Z,37.46
2016-09-15T03:36:51.955Z,37.46
2016-09-15T03:37:51.978Z,37.76
2016-09-15T03:38:52.005Z,37.27
2016-09-15T03:39:52.028Z,38.33
2016-09-15T03:40:52.066Z,38.14
2016-09-15T03:41:52.078Z,38.14
2016-09-15T03:42:52.106Z,38.24
2016-09-15T03:43:52.128Z,38.33
2016-09-15T03:44:52.155Z,38.24
2016-09-15T03:45:52.180Z,38.33
2016-09-15T03:46:52.205Z,38.33
2016-09-15T03:47:52.233Z,38.24
2016-09-15T03:48:52.252Z,38.24
2016-09-15T03:49:52.278Z,38.43
2016-09-15T03:50:52.304Z,38.33
2016-09-15T03:51:52.328Z,37.85
2016-09-15T03:52:52.357Z,38.24
2016-09-15T03:53:52.388Z,38.43
2016-09-15T03:54:52.723Z,38.33
2016-09-15T03:55:52.432Z,38.53
2016-09-15T03:56:52.454Z,38.43
2016-09-15T03:57:52.478Z,38.14
2016-09-15T03:58:52.505Z,38.43
2016-09-15T03:59:52.528Z,38.51
2016-09-15T04:00:52.557Z,38.31
2016-09-15T04:01:52.581Z,38.53
2016-09-15T04:02:52.607Z,38.41
2016-09-15T04:03:52.629Z,38.41
2016-09-15T04:04:52.655Z,38.51
2016-09-15T04:05:52.679Z,38.41
2016-09-15T04:06:52.702Z,38.7
2016-09-15T04:07:52.728Z,38.6
2016-09-15T04:08:52.754Z,38.22
2016-09-15T04:09:52.780Z,38.41
2016-09-15T04:10:52.807Z,38.6
2016-09-15T04:11:52.829Z,38.6
2016-09-15T04:12:52.856Z,38.7
2016-09-15T04:13:52.889Z,38.6
2016-09-15T04:14:52.912Z,38.51
2016-09-15T04:15:52.931Z,38.7
2016-09-15T04:16:52.965Z,38.51
2016-09-15T04:17:52.978Z,38.6
2016-09-15T04:18:53.005Z,38.79
2016-09-15T04:19:53.029Z,38.6
2016-09-15T04:20:53.054Z,38.51
2016-09-15T04:21:53.079Z,38.6
2016-09-15T04:22:53.107Z,38.6
2016-09-15T04:23:53.130Z,38.31
2016-09-15T04:24:53.152Z,38.6
2016-09-15T04:25:53.226Z,38.51
2016-09-15T04:26:53.202Z,38.6
2016-09-15T04:27:53.230Z,38.6
2016-09-15T04:28:53.252Z,38.79
2016-09-15T04:29:53.285Z,38.89
2016-09-15T04:30:53.309Z,38.6
2016-09-15T04:31:53.327Z,38.89
2016-09-15T04:32:53.353Z,38.6
2016-09-15T04:33:53.376Z,38.6
2016-09-15T04:34:53.404Z,38.79
2016-09-15T04:35:53.430Z,38.89
2016-09-15T04:36:53.455Z,38.79
2016-09-15T04:37:53.479Z,38.79
2016-09-15T04:38:53.503Z,38.78
2016-09-15T04:39:53.532Z,38.89
2016-09-15T04:40:53.556Z,39.09
2016-09-15T04:41:53.587Z,38.99
2016-09-15T04:42:53.603Z,38.68
2016-09-15T04:43:53.627Z,39.18
2016-09-15T04:44:53.657Z,39.16
2016-09-15T04:45:53.676Z,38.97
2016-09-15T04:46:53.705Z,39.16
2016-09-15T04:47:53.725Z,38.97
2016-09-15T04:48:53.748Z,39.26
2016-09-15T04:49:53.776Z,39.16
2016-09-15T04:50:53.798Z,39.16
2016-09-15T04:51:53.825Z,39.36
2016-09-15T04:52:53.987Z,39.26
2016-09-15T04:53:53.876Z,39.16
2016-09-15T04:54:53.898Z,39.26
2016-09-15T04:55:54.237Z,39.26
2016-09-15T04:56:53.949Z,38.78
2016-09-15T04:57:53.974Z,39.45
2016-09-15T04:58:53.999Z,39.26
2016-09-15T04:59:54.023Z,39.26
2016-09-15T05:00:54.050Z,39.16
2016-09-15T05:01:54.073Z,39.45
2016-09-15T05:02:54.096Z,39.36
2016-09-15T05:03:54.123Z,39.36
2016-09-15T05:04:54.153Z,39.54
2016-09-15T05:05:54.168Z,39.16
2016-09-15T05:06:54.195Z,39.36
2016-09-15T05:07:54.218Z,39.36
2016-09-15T05:08:54.244Z,39.36
2016-09-15T05:09:54.584Z,39.16
2016-09-15T05:10:54.294Z,39.26
2016-09-15T05:11:54.317Z,39.16
2016-09-15T05:12:54.344Z,39.16
2016-09-15T05:13:54.366Z,39.26
2016-09-15T05:14:54.391Z,39.36
2016-09-15T05:15:54.419Z,39.26
2016-09-15T05:16:54.443Z,39.26
2016-09-15T05:17:54.465Z,39.16
2016-09-15T05:18:54.492Z,39.26
2016-09-15T05:19:54.518Z,39.26
2016-09-15T05:20:54.551Z,39.36
2016-09-15T05:21:54.567Z,39.45
2016-09-15T05:22:54.594Z,38.97
2016-09-15T05:23:54.611Z,38.87
2016-09-15T05:24:54.639Z,39.36
2016-09-15T05:25:54.663Z,39.26
2016-09-15T05:26:54.686Z,39.26
2016-09-15T05:27:54.711Z,39.45
2016-09-15T05:28:54.742Z,39.54
2016-09-15T05:29:54.764Z,39.26
2016-09-15T05:30:54.784Z,39.54
2016-09-15T05:31:54.811Z,39.83
2016-09-15T05:32:54.835Z,39.93
2016-09-15T05:33:54.859Z,39.54
2016-09-15T05:34:54.883Z,39.93
2016-09-15T05:35:54.909Z,39.62
2016-09-15T05:36:54.933Z,39.83
2016-09-15T05:37:54.957Z,39.83
2016-09-15T05:38:54.980Z,39.93
2016-09-15T05:39:55.005Z,39.93
2016-09-15T05:40:55.029Z,40.12
2016-09-15T05:41:55.057Z,40.03
2016-09-15T05:42:55.078Z,40.03
2016-09-15T05:43:55.103Z,40.22
2016-09-15T05:44:55.138Z,39.93
2016-09-15T05:45:55.152Z,40.61
2016-09-15T05:46:55.177Z,40.51
2016-09-15T05:47:55.200Z,40.41
2016-09-15T05:48:55.225Z,40.61
2016-09-15T05:49:55.250Z,40.51
2016-09-15T05:50:55.280Z,40.41
2016-09-15T05:51:55.299Z,40.51
2016-09-15T05:52:55.323Z,40.41
2016-09-15T05:53:55.348Z,40.51
2016-09-15T05:54:55.371Z,40.8
2016-09-15T05:55:55.395Z,40.31
2016-09-15T05:56:55.419Z,40.41
2016-09-15T05:57:55.444Z,40.51
2016-09-15T05:58:55.478Z,40.51
2016-09-15T05:59:55.496Z,40.31
2016-09-15T06:00:55.520Z,40.22
2016-09-15T06:01:55.543Z,40.03
2016-09-15T06:02:55.568Z,40.12
2016-09-15T06:03:55.591Z,40.03
2016-09-15T06:04:55.616Z,40.22
2016-09-15T06:05:55.639Z,40.22
2016-09-15T06:06:55.666Z,40.31
2016-09-15T06:07:55.687Z,40.22
2016-09-15T06:08:55.713Z,40.41
2016-09-15T06:09:55.739Z,40.22
2016-09-15T06:10:55.764Z,40.22
2016-09-15T06:11:55.787Z,40.03
2016-09-15T06:12:55.811Z,40.41
2016-09-15T06:13:55.838Z,40.53
2016-09-15T06:14:55.859Z,40.41
2016-09-15T06:15:55.887Z,40.63
2016-09-15T06:16:55.909Z,40.72
2016-09-15T06:17:55.937Z,40.53
2016-09-15T06:18:55.959Z,40.53
2016-09-15T06:19:55.986Z,40.53
2016-09-15T06:20:56.019Z,40.24
2016-09-15T06:21:56.031Z,40.05
2016-09-15T06:22:56.065Z,40.43
2016-09-15T06:23:56.083Z,39.95
2016-09-15T06:24:56.107Z,39.86
2016-09-15T06:25:56.130Z,39.66
2016-09-15T06:26:56.154Z,39.66
2016-09-15T06:27:56.182Z,39.78
2016-09-15T06:28:56.204Z,39.78
2016-09-15T06:29:56.231Z,39.68
2016-09-15T06:30:56.256Z,39.97
2016-09-15T06:31:56.279Z,39.78
2016-09-15T06:32:56.626Z,40.07
2016-09-15T06:33:56.338Z,39.68
2016-09-15T06:34:56.354Z,39.97
2016-09-15T06:35:56.374Z,39.78
2016-09-15T06:36:56.414Z,39.97
2016-09-15T06:37:56.423Z,39.97
2016-09-15T06:38:56.769Z,39.87
2016-09-15T06:39:56.474Z,39.61
2016-09-15T06:40:56.498Z,39.61
2016-09-15T06:41:56.523Z,39.7
2016-09-15T06:42:56.547Z,39.79
2016-09-15T06:43:56.570Z,39.61
2016-09-15T06:44:56.598Z,39.41
2016-09-15T06:45:56.623Z,39.41
2016-09-15T06:46:56.645Z,39.51
2016-09-15T06:47:56.669Z,39.12
2016-09-15T06:48:56.693Z,39.12
2016-09-15T06:49:56.719Z,39.31
2016-09-15T06:50:56.748Z,39.31
2016-09-15T06:51:56.766Z,39.22
2016-09-15T06:52:56.798Z,39.41
2016-09-15T06:53:56.818Z,39.24
2016-09-15T06:54:56.843Z,39.14
2016-09-15T06:55:56.867Z,39.14
2016-09-15T06:56:56.895Z,39.14
2016-09-15T06:57:56.915Z,38.95
2016-09-15T06:58:56.943Z,38.85
2016-09-15T06:59:56.969Z,38.85
2016-09-15T07:00:56.997Z,38.95
2016-09-15T07:01:57.019Z,38.66
2016-09-15T07:02:57.049Z,38.56
2016-09-15T07:03:57.070Z,38.68
2016-09-15T07:04:57.091Z,38.68
2016-09-15T07:05:57.115Z,38.58
2016-09-15T07:06:57.139Z,38.39
2016-09-15T07:07:57.163Z,38.49
2016-09-15T07:08:57.197Z,38.68
2016-09-15T07:09:57.213Z,38.58
2016-09-15T07:10:57.245Z,38.49
2016-09-15T07:11:57.265Z,38.39
2016-09-15T07:12:57.305Z,38.2
2016-09-15T07:13:57.312Z,38.41
2016-09-15T07:14:57.339Z,38.31
2016-09-15T07:15:57.370Z,38.02
2016-09-15T07:16:57.389Z,37.54
2016-09-15T07:17:57.414Z,37.63
2016-09-15T07:18:57.445Z,37.93
2016-09-15T07:19:57.465Z,38.12
2016-09-15T07:20:57.491Z,38.02
2016-09-15T07:21:57.514Z,37.83
2016-09-15T07:22:57.539Z,37.54
2016-09-15T07:23:57.567Z,37.63
2016-09-15T07:24:57.590Z,37.56
2016-09-15T07:25:57.613Z,37.75
2016-09-15T07:26:57.641Z,37.75
2016-09-15T07:27:57.664Z,37.46
2016-09-15T07:28:57.692Z,37.27
2016-09-15T07:29:57.717Z,37.17
2016-09-15T07:30:57.742Z,37.17
2016-09-15T07:31:57.782Z,36.98
2016-09-15T07:32:57.791Z,36.79
2016-09-15T07:33:57.818Z,36.9
2016-09-15T07:34:57.847Z,37.1
2016-09-15T07:35:57.869Z,37.19
2016-09-15T07:36:57.898Z,36.9
2016-09-15T07:37:57.922Z,36.8
2016-09-15T07:38:57.948Z,36.8
2016-09-15T07:39:57.970Z,36.32
2016-09-15T07:40:57.997Z,36.44
2016-09-15T07:41:58.026Z,36.34
2016-09-15T07:42:58.047Z,36.53
2016-09-15T07:43:58.072Z,36.15
2016-09-15T07:44:58.100Z,35.57
2016-09-15T07:45:58.122Z,35.66
2016-09-15T07:46:58.153Z,36.05
2016-09-15T07:47:58.358Z,35.47
2016-09-15T07:48:58.209Z,35.49
2016-09-15T07:49:58.227Z,35.39
2016-09-15T07:50:58.253Z,35.29
2016-09-15T07:51:58.280Z,35.39
2016-09-15T07:52:58.305Z,35.58
2016-09-15T07:53:58.330Z,35.1
2016-09-15T07:54:58.358Z,35.1
2016-09-15T07:55:58.384Z,35.1
2016-09-15T07:56:58.410Z,34.71
2016-09-15T07:57:58.431Z,35.12
2016-09-15T07:58:58.459Z,34.63
2016-09-15T07:59:58.488Z,34.44
2016-09-15T08:00:58.511Z,34.34
2016-09-15T08:01:58.537Z,34.25
2016-09-15T08:02:58.565Z,34.73
2016-09-15T08:03:58.591Z,33.76
2016-09-15T08:04:58.619Z,34.05
2016-09-15T08:05:58.644Z,34.25
2016-09-15T08:06:58.666Z,34.05
2016-09-15T08:07:58.704Z,34.36
2016-09-15T08:08:58.720Z,33.87
2016-09-15T08:09:58.825Z,33.87
2016-09-15T08:10:58.773Z,33.87
2016-09-15T08:11:58.797Z,33.87
2016-09-15T08:12:58.827Z,33.69
2016-09-15T08:13:58.853Z,33.22
2016-09-15T08:14:58.879Z,33.41
2016-09-15T08:15:58.927Z,33.12
2016-09-15T08:16:58.939Z,33.41
2016-09-15T08:17:58.957Z,32.92
2016-09-15T08:18:58.983Z,32.44
2016-09-15T08:19:59.010Z,32.65
2016-09-15T08:20:59.036Z,32.75
2016-09-15T08:21:59.063Z,32.36
2016-09-15T08:22:59.088Z,32.17
2016-09-15T08:23:59.115Z,32.34
2016-09-15T08:24:59.142Z,32.26
2016-09-15T08:25:59.169Z,31.78
2016-09-15T08:26:59.194Z,32.07
2016-09-15T08:27:59.220Z,32.36
2016-09-15T08:28:59.264Z,31.97
2016-09-15T08:29:59.275Z,32.36
2016-09-15T08:30:59.320Z,32.46
2016-09-15T08:31:59.329Z,31.89
2016-09-15T08:32:59.476Z,31.89
2016-09-15T08:33:59.408Z,32.09
2016-09-15T08:34:59.729Z,31.31
2016-09-15T08:35:59.552Z,31.5
2016-09-15T08:36:59.564Z,31.5
2016-09-15T08:37:59.594Z,31.6
2016-09-15T08:38:59.604Z,31.21
2016-09-15T08:39:59.603Z,31.31
2016-09-15T08:40:59.611Z,31.04
2016-09-15T08:41:59.707Z,30.94
2016-09-15T08:42:59.634Z,30.94
2016-09-15T08:43:59.762Z,30.94
2016-09-15T08:44:59.754Z,30.74
2016-09-15T08:45:59.786Z,30.55
2016-09-15T08:46:59.738Z,30.55
2016-09-15T08:47:59.756Z,30.45
2016-09-15T08:49:00.104Z,30.57
2016-09-15T08:49:59.873Z,30.18
2016-09-15T08:50:59.840Z,30.37
2016-09-15T08:51:59.866Z,30.18
2016-09-15T08:52:59.895Z,30.08
2016-09-15T08:53:59.926Z,29.88
2016-09-15T08:54:59.954Z,29.79
2016-09-15T08:55:59.977Z,29.79
2016-09-15T08:57:00.006Z,29.88
2016-09-15T08:58:00.032Z,30
2016-09-15T08:59:00.064Z,29.71
2016-09-15T09:00:00.086Z,29.71
2016-09-15T09:01:00.115Z,29.22
2016-09-15T09:02:00.143Z,29.22
2016-09-15T09:03:00.169Z,29.02
2016-09-15T09:04:00.194Z,29.12
2016-09-15T09:05:00.228Z,28.93
2016-09-15T09:06:00.250Z,28.85
2016-09-15T09:07:00.279Z,29.43
2016-09-15T09:08:00.306Z,29.04
2016-09-15T09:09:00.336Z,28.85
2016-09-15T09:10:00.364Z,29.24
2016-09-15T09:11:00.391Z,29.04
2016-09-15T09:12:00.414Z,29.43
2016-09-15T09:13:00.454Z,29.25
2016-09-15T09:14:00.476Z,29.35
2016-09-15T09:15:00.501Z,28.38
2016-09-15T09:16:00.528Z,28.47
2016-09-15T09:17:00.557Z,27.89
2016-09-15T09:18:00.595Z,27.79
2016-09-15T09:19:00.619Z,27.5
2016-09-15T09:20:00.640Z,28.08
2016-09-15T09:21:00.666Z,28.08
2016-09-15T09:22:00.701Z,27.79
2016-09-15T09:23:00.723Z,27.8
2016-09-15T09:24:00.759Z,27.8
2016-09-15T09:25:00.779Z,27.61
2016-09-15T09:26:00.808Z,27.42
2016-09-15T09:27:00.849Z,27.9
2016-09-15T09:28:00.868Z,27.8
2016-09-15T09:29:00.891Z,27.7
2016-09-15T09:30:00.923Z,27.9
2016-09-15T09:31:00.950Z,27.82
2016-09-15T09:32:00.977Z,27.23
2016-09-15T09:33:01.006Z,27.33
2016-09-15T09:34:01.033Z,27.33
2016-09-15T09:35:01.063Z,27.04
2016-09-15T09:36:01.093Z,27.14
2016-09-15T09:37:01.119Z,27.14
2016-09-15T09:38:01.154Z,27.23
2016-09-15T09:39:01.185Z,26.84
2016-09-15T09:40:01.205Z,26.67
2016-09-15T09:41:01.234Z,26.47
2016-09-15T09:42:01.265Z,26.47
2016-09-15T09:43:01.414Z,26.18
2016-09-15T09:44:01.434Z,26.76
2016-09-15T09:45:01.436Z,26.86
2016-09-15T09:46:01.464Z,26.57
2016-09-15T09:47:01.643Z,26.28
2016-09-15T09:48:01.646Z,26.28
2016-09-15T09:49:01.652Z,25.7
2016-09-15T09:50:01.793Z,25.69
2016-09-15T09:51:02.021Z,25.8
2016-09-15T09:52:01.718Z,25.51
2016-09-15T09:53:01.717Z,25.6
2016-09-15T09:54:01.726Z,25.6
2016-09-15T09:55:01.733Z,25.6
2016-09-15T09:56:01.743Z,25.7
2016-09-15T09:57:02.114Z,25.8
2016-09-15T09:58:01.812Z,26.09
2016-09-15T09:59:01.820Z,25.9
2016-09-15T10:00:01.839Z,26.1
2016-09-15T10:01:01.837Z,25.13
2016-09-15T10:02:01.850Z,25.32
2016-09-15T10:03:01.869Z,25.13
2016-09-15T10:04:01.895Z,25.23
2016-09-15T10:05:01.926Z,24.94
2016-09-15T10:06:01.958Z,25.52
2016-09-15T10:07:01.984Z,25.32
2016-09-15T10:08:02.011Z,25.03
2016-09-15T10:09:02.042Z,24.66
2016-09-15T10:10:02.071Z,24.66
2016-09-15T10:11:02.101Z,24.85
2016-09-15T10:12:02.129Z,24.95
2016-09-15T10:13:02.159Z,24.46
2016-09-15T10:14:02.192Z,24.56
2016-09-15T10:15:02.224Z,24.27
2016-09-15T10:16:02.247Z,24.46
2016-09-15T10:17:02.387Z,23.68
2016-09-15T10:18:02.398Z,23.78
2016-09-15T10:19:02.570Z,23.88
2016-09-15T10:20:02.588Z,23.6
2016-09-15T10:21:02.595Z,23.89
2016-09-15T10:22:02.604Z,23.79
2016-09-15T10:23:02.453Z,23.79
2016-09-15T10:24:02.483Z,23.79
2016-09-15T10:25:02.513Z,23.69
2016-09-15T10:26:02.627Z,23.79
2016-09-15T10:27:02.572Z,23.6
2016-09-15T10:28:02.645Z,23.4
2016-09-15T10:29:02.653Z,23.11
2016-09-15T10:30:02.663Z,23.02
2016-09-15T10:31:02.692Z,22.83
2016-09-15T10:32:02.721Z,23.32
2016-09-15T10:33:02.761Z,22.92
2016-09-15T10:34:02.827Z,23.22
2016-09-15T10:35:02.815Z,23.02
2016-09-15T10:36:02.871Z,23.02
2016-09-15T10:37:02.870Z,22.83
2016-09-15T10:38:02.899Z,23.13
2016-09-15T10:39:02.929Z,22.73
2016-09-15T10:40:02.976Z,23.03
2016-09-15T10:41:02.993Z,23.33
2016-09-15T10:42:03.042Z,22.55
2016-09-15T10:43:03.050Z,22.55
2016-09-15T10:44:03.082Z,22.45
2016-09-15T10:45:03.111Z,22.45
2016-09-15T10:46:03.199Z,23.13
2016-09-15T10:47:03.270Z,22.45
2016-09-15T10:48:03.301Z,22.74
2016-09-15T10:49:03.348Z,22.07
2016-09-15T10:50:03.314Z,22.07
2016-09-15T10:51:03.292Z,22.36
2016-09-15T10:52:03.322Z,22.75
2016-09-15T10:53:03.360Z,22.66
2016-09-15T10:54:03.440Z,22.07
2016-09-15T10:55:03.419Z,22.07
2016-09-15T10:56:03.443Z,22.07
2016-09-15T10:57:03.476Z,22.36
2016-09-15T10:58:03.511Z,22.27
2016-09-15T10:59:03.543Z,22.17
2016-09-15T11:00:03.566Z,21.97
2016-09-15T11:01:03.599Z,21.3
2016-09-15T11:02:03.630Z,20.9
2016-09-15T11:03:03.659Z,21.49
2016-09-15T11:04:03.690Z,21.39
2016-09-15T11:05:03.720Z,21.49
2016-09-15T11:06:03.753Z,21.1
2016-09-15T11:07:03.783Z,21.1
2016-09-15T11:08:03.813Z,21.1
2016-09-15T11:09:03.843Z,21.1
2016-09-15T11:10:03.876Z,21.3
2016-09-15T11:11:03.906Z,21.1
2016-09-15T11:12:03.936Z,21.1
2016-09-15T11:13:03.969Z,21.1
2016-09-15T11:14:03.998Z,21.1
2016-09-15T11:15:04.040Z,20.82
2016-09-15T11:16:04.064Z,21.41
2016-09-15T11:17:04.091Z,21.49
2016-09-15T11:18:04.128Z,20.81
2016-09-15T11:19:04.159Z,20.62
2016-09-15T11:20:04.183Z,20.62
2016-09-15T11:21:04.216Z,20.62
2016-09-15T11:22:04.244Z,20.53
2016-09-15T11:23:04.587Z,20.23
2016-09-15T11:24:04.308Z,20.43
2016-09-15T11:25:04.338Z,20.33
2016-09-15T11:26:04.369Z,20.33
2016-09-15T11:27:04.400Z,19.95
2016-09-15T11:28:04.434Z,19.94
2016-09-15T11:29:04.463Z,20.24
2016-09-15T11:30:04.495Z,20.23
2016-09-15T11:31:04.525Z,20.34
2016-09-15T11:32:04.558Z,20.43
2016-09-15T11:33:04.587Z,20.23
2016-09-15T11:34:04.621Z,19.75
2016-09-15T11:35:04.657Z,19.85
2016-09-15T11:36:04.683Z,19.46
2016-09-15T11:37:04.716Z,19.74
2016-09-15T11:38:05.065Z,19.84
2016-09-15T11:39:04.775Z,19.95
2016-09-15T11:40:04.808Z,20.53
2016-09-15T11:41:04.839Z,20.43
2016-09-15T11:42:04.869Z,20.04
2016-09-15T11:43:04.904Z,19.95
2016-09-15T11:44:04.932Z,19.75
2016-09-15T11:45:04.965Z,19.17
2016-09-15T11:46:04.996Z,19.65
2016-09-15T11:47:05.033Z,19.56
2016-09-15T11:48:05.060Z,19.95
2016-09-15T11:49:05.091Z,19.95
2016-09-15T11:50:05.172Z,20.04
2016-09-15T11:51:05.152Z,19.75
2016-09-15T11:52:05.185Z,19.07
2016-09-15T11:53:05.214Z,19.26
2016-09-15T11:54:05.248Z,19.95
2016-09-15T11:55:05.279Z,19.56
2016-09-15T11:56:05.312Z,19.75
2016-09-15T11:57:05.343Z,19.67
2016-09-15T11:58:05.373Z,19.65
2016-09-15T11:59:05.407Z,19.46
2016-09-15T12:00:05.449Z,19.65
2016-09-15T12:01:05.490Z,19.86
2016-09-15T12:02:05.500Z,19.18
2016-09-15T12:03:05.535Z,19.57
2016-09-15T12:04:05.564Z,19.27
2016-09-15T12:05:05.595Z,19.08
2016-09-15T12:06:05.625Z,19.18
2016-09-15T12:07:05.655Z,18.98
2016-09-15T12:08:05.692Z,19.08
2016-09-15T12:09:05.719Z,18.49
2016-09-15T12:10:05.755Z,18.68
2016-09-15T12:11:05.792Z,18.29
2016-09-15T12:12:05.821Z,18.19
2016-09-15T12:13:05.852Z,18.68
2016-09-15T12:14:05.880Z,18.77
2016-09-15T12:15:05.915Z,19.07
2016-09-15T12:16:05.942Z,19.36
2016-09-15T12:17:05.974Z,19.17
2016-09-15T12:18:06.006Z,19.17
2016-09-15T12:19:06.160Z,19.37
2016-09-15T12:20:06.163Z,19.07
2016-09-15T12:21:06.195Z,19.37
2016-09-15T12:22:06.195Z,18.88
2016-09-15T12:23:06.204Z,18.97
2016-09-15T12:24:06.213Z,19.26
2016-09-15T12:25:06.228Z,19.08
2016-09-15T12:26:06.365Z,18.98
2016-09-15T12:27:06.389Z,18.98
2016-09-15T12:28:06.397Z,18.98
2016-09-15T12:29:06.449Z,18.88
2016-09-15T12:30:06.445Z,18.79
2016-09-15T12:31:06.454Z,18.19
2016-09-15T12:32:06.463Z,18.59
2016-09-15T12:33:06.484Z,18.79
2016-09-15T12:34:06.514Z,18.98
2016-09-15T12:35:06.553Z,18.59
2016-09-15T12:36:06.581Z,18.68
2016-09-15T12:37:06.611Z,18.49
2016-09-15T12:38:06.643Z,18.29
2016-09-15T12:39:06.674Z,18.29
2016-09-15T12:40:06.705Z,18.39
2016-09-15T12:41:06.738Z,18.39
2016-09-15T12:42:06.767Z,18.39
2016-09-15T12:43:06.801Z,18.29
2016-09-15T12:44:06.833Z,18.29
2016-09-15T12:45:06.864Z,17.8
2016-09-15T12:46:06.895Z,17.71
2016-09-15T12:47:06.934Z,17.8
2016-09-15T12:48:06.959Z,17.99
2016-09-15T12:49:07.000Z,17.9
2016-09-15T12:50:07.023Z,18.58
2016-09-15T12:51:07.058Z,18.39
2016-09-15T12:52:07.091Z,18.58
2016-09-15T12:53:07.123Z,18.29
2016-09-15T12:54:07.150Z,18.68
2016-09-15T12:55:07.191Z,18.58
2016-09-15T12:56:07.216Z,18.68